PWSweather.com
Personal Weather Stations
Station Observations
270882
Flassian, LimouxFR 11300

FlassianLimouxFR 11300

Lat: 43.071798, Lon: 2.217292

Elevation: 165

Station Type: Oregon WMR 200

http://www.meteolimoux.fr

High Low Average
Temperature 42.1°F5.6°C 28.2°F-2.1°C 36.9°F2.7°C
Dew Point 24.4°F-4.2°C 18.3°F-7.6°C 21.4°F-5.9°C
Winds 9.8 mph 15.8 kmh Calm Calm 4.0 mph SW6.4 kmh SW
Wind Gusts 18.8 mph30.3 kmh -- 8.0 mph12.9 kmh
Humidity 66% 46% 53%
Pressure 29.81 in1009.5 mb 29.72 in1006.4 mb -
Precipitation 0.00 in0.0 mm - -
Hour Temp Dew Point Humidity Winds Wind Gusts Pressure Precip Precip Rate Daily Precip Total
12:02 AM 37.8°F3.2°C 23.9°F-4.5°C 57% 4.9 mph W7.9 kmh W 9.2 mph14.8 kmh 29.81 in1009.5 mb - 0.00 in0.0 mm 0.00 in0.0 mm
12:07 AM 37.6°F3.1°C 23.4°F-4.8°C 56% 5.8 mph NW9.3 kmh NW 13.2 mph21.2 kmh 29.81 in1009.5 mb - 0.00 in0.0 mm 0.00 in0.0 mm
12:12 AM 37.4°F3.0°C 22.3°F-5.4°C 54% 4.9 mph WSW7.9 kmh WSW 13.0 mph20.9 kmh 29.81 in1009.5 mb - 0.00 in0.0 mm 0.00 in0.0 mm
12:17 AM 37.4°F3.0°C 21.9°F-5.6°C 53% 7.2 mph WNW11.6 kmh WNW 15.2 mph24.5 kmh 29.81 in1009.5 mb - 0.00 in0.0 mm 0.00 in0.0 mm
12:22 AM 37.2°F2.9°C 22.1°F-5.5°C 54% 6.9 mph WNW11.1 kmh WNW 11.9 mph19.2 kmh 29.81 in1009.5 mb - 0.00 in0.0 mm 0.00 in0.0 mm
12:27 AM 37.2°F2.9°C 22.1°F-5.5°C 54% 6.5 mph NW10.5 kmh NW 10.5 mph16.9 kmh 29.81 in1009.5 mb - 0.00 in0.0 mm 0.00 in0.0 mm
12:32 AM 37.0°F2.8°C 21.9°F-5.6°C 54% 5.8 mph WNW9.3 kmh WNW 9.4 mph15.1 kmh 29.81 in1009.5 mb - 0.00 in0.0 mm 0.00 in0.0 mm
12:37 AM 37.0°F2.8°C 21.9°F-5.6°C 54% 3.6 mph NW5.8 kmh NW 7.8 mph12.6 kmh 29.81 in1009.5 mb - 0.00 in0.0 mm 0.00 in0.0 mm
12:42 AM 37.0°F2.8°C 21.9°F-5.6°C 54% 5.4 mph NW8.7 kmh NW 10.7 mph17.2 kmh 29.81 in1009.5 mb - 0.00 in0.0 mm 0.00 in0.0 mm
12:47 AM 37.0°F2.8°C 21.9°F-5.6°C 54% 4.9 mph WNW7.9 kmh WNW 9.2 mph14.8 kmh 29.81 in1009.5 mb - 0.00 in0.0 mm 0.00 in0.0 mm
12:52 AM 36.9°F2.7°C 21.7°F-5.7°C 54% 5.6 mph W9.0 kmh W 11.4 mph18.3 kmh 29.81 in1009.5 mb - 0.00 in0.0 mm 0.00 in0.0 mm
12:57 AM 36.7°F2.6°C 21.6°F-5.8°C 54% 5.1 mph NW8.2 kmh NW 12.5 mph20.1 kmh 29.81 in1009.5 mb - 0.00 in0.0 mm 0.00 in0.0 mm
01:02 AM 36.5°F2.5°C 21.0°F-6.1°C 53% 5.4 mph WSW8.7 kmh WSW 10.1 mph16.3 kmh 29.81 in1009.5 mb - 0.00 in0.0 mm 0.00 in0.0 mm
01:07 AM 36.5°F2.5°C 21.0°F-6.1°C 53% 4.7 mph NW7.6 kmh NW 10.5 mph16.9 kmh 29.81 in1009.5 mb - 0.00 in0.0 mm 0.00 in0.0 mm
01:12 AM 36.3°F2.4°C 20.8°F-6.2°C 53% 4.0 mph WNW6.4 kmh WNW 7.6 mph12.2 kmh 29.81 in1009.5 mb - 0.00 in0.0 mm 0.00 in0.0 mm
01:17 AM 36.3°F2.4°C 20.8°F-6.2°C 53% 4.3 mph WNW6.9 kmh WNW 8.5 mph13.7 kmh 29.81 in1009.5 mb - 0.00 in0.0 mm 0.00 in0.0 mm
01:22 AM 36.1°F2.3°C 20.7°F-6.3°C 53% 4.0 mph WSW6.4 kmh WSW 8.9 mph14.3 kmh 29.81 in1009.5 mb - 0.00 in0.0 mm 0.00 in0.0 mm
01:27 AM 36.1°F2.3°C 20.7°F-6.3°C 53% 5.6 mph W9.0 kmh W 9.2 mph14.8 kmh 29.81 in1009.5 mb - 0.00 in0.0 mm 0.00 in0.0 mm
01:32 AM 36.0°F2.2°C 20.5°F-6.4°C 53% 4.3 mph WNW6.9 kmh WNW 8.3 mph13.4 kmh 29.81 in1009.5 mb - 0.00 in0.0 mm 0.00 in0.0 mm
01:37 AM 36.0°F2.2°C 20.5°F-6.4°C 53% 4.0 mph NW6.4 kmh NW 7.2 mph11.6 kmh 29.81 in1009.5 mb - 0.00 in0.0 mm 0.00 in0.0 mm
01:42 AM 36.0°F2.2°C 20.5°F-6.4°C 53% 5.1 mph WNW8.2 kmh WNW 8.9 mph14.3 kmh 29.81 in1009.5 mb - 0.00 in0.0 mm 0.00 in0.0 mm
01:47 AM 35.8°F2.1°C 20.3°F-6.5°C 53% 5.1 mph WNW8.2 kmh WNW 8.5 mph13.7 kmh 29.81 in1009.5 mb - 0.00 in0.0 mm 0.00 in0.0 mm
01:52 AM 35.6°F2.0°C 20.7°F-6.3°C 54% 4.7 mph W7.6 kmh W 9.2 mph14.8 kmh 29.81 in1009.5 mb - 0.00 in0.0 mm 0.00 in0.0 mm
01:57 AM 35.6°F2.0°C 20.7°F-6.3°C 54% 4.7 mph WSW7.6 kmh WSW 8.3 mph13.4 kmh 29.81 in1009.5 mb - 0.00 in0.0 mm 0.00 in0.0 mm
02:02 AM 35.4°F1.9°C 20.5°F-6.4°C 54% 4.0 mph WNW6.4 kmh WNW 7.6 mph12.2 kmh 29.78 in1008.5 mb - 0.00 in0.0 mm 0.00 in0.0 mm
02:07 AM 35.2°F1.8°C 20.3°F-6.5°C 54% 4.3 mph WNW6.9 kmh WNW 6.9 mph11.1 kmh 29.78 in1008.5 mb - 0.00 in0.0 mm 0.00 in0.0 mm
02:12 AM 35.2°F1.8°C 20.3°F-6.5°C 54% 3.1 mph W5.0 kmh W 3.1 mph5.0 kmh 29.78 in1008.5 mb - 0.00 in0.0 mm 0.00 in0.0 mm
02:17 AM 35.2°F1.8°C 20.3°F-6.5°C 54% 2.0 mph WNW3.2 kmh WNW 5.6 mph9.0 kmh 29.78 in1008.5 mb - 0.00 in0.0 mm 0.00 in0.0 mm
02:22 AM 35.2°F1.8°C 20.3°F-6.5°C 54% 3.1 mph W5.0 kmh W 7.6 mph12.2 kmh 29.78 in1008.5 mb - 0.00 in0.0 mm 0.00 in0.0 mm
02:27 AM 35.2°F1.8°C 20.3°F-6.5°C 54% 2.9 mph W4.7 kmh W 7.4 mph11.9 kmh 29.78 in1008.5 mb - 0.00 in0.0 mm 0.00 in0.0 mm
02:32 AM 35.2°F1.8°C 20.3°F-6.5°C 54% 3.4 mph WSW5.5 kmh WSW 6.5 mph10.5 kmh 29.78 in1008.5 mb - 0.00 in0.0 mm 0.00 in0.0 mm
02:37 AM 35.2°F1.8°C 20.3°F-6.5°C 54% 5.4 mph WNW8.7 kmh WNW 8.9 mph14.3 kmh 29.78 in1008.5 mb - 0.00 in0.0 mm 0.00 in0.0 mm
02:42 AM 35.2°F1.8°C 20.3°F-6.5°C 54% 4.3 mph W6.9 kmh W 9.6 mph15.4 kmh 29.78 in1008.5 mb - 0.00 in0.0 mm 0.00 in0.0 mm
02:47 AM 35.1°F1.7°C 20.1°F-6.6°C 54% 3.1 mph WSW5.0 kmh WSW 5.6 mph9.0 kmh 29.81 in1009.5 mb - 0.00 in0.0 mm 0.00 in0.0 mm
02:52 AM 34.9°F1.6°C 19.9°F-6.7°C 54% 3.1 mph WSW5.0 kmh WSW 8.1 mph13.0 kmh 29.81 in1009.5 mb - 0.00 in0.0 mm 0.00 in0.0 mm
02:57 AM 34.9°F1.6°C 19.9°F-6.7°C 54% 2.5 mph W4.0 kmh W 8.3 mph13.4 kmh 29.81 in1009.5 mb - 0.00 in0.0 mm 0.00 in0.0 mm
03:02 AM 34.9°F1.6°C 19.9°F-6.7°C 54% 1.8 mph W2.9 kmh W 5.1 mph8.2 kmh 29.81 in1009.5 mb - 0.00 in0.0 mm 0.00 in0.0 mm
03:07 AM 34.9°F1.6°C 19.9°F-6.7°C 54% 3.6 mph W5.8 kmh W 7.4 mph11.9 kmh 29.81 in1009.5 mb - 0.00 in0.0 mm 0.00 in0.0 mm
03:12 AM 34.9°F1.6°C 19.9°F-6.7°C 54% 3.6 mph SW5.8 kmh SW 8.5 mph13.7 kmh 29.81 in1009.5 mb - 0.00 in0.0 mm 0.00 in0.0 mm
03:17 AM 34.9°F1.6°C 19.9°F-6.7°C 54% 3.1 mph W5.0 kmh W 7.6 mph12.2 kmh 29.81 in1009.5 mb - 0.00 in0.0 mm 0.00 in0.0 mm
03:22 AM 35.1°F1.7°C 20.1°F-6.6°C 54% 3.8 mph W6.1 kmh W 8.9 mph14.3 kmh 29.81 in1009.5 mb - 0.00 in0.0 mm 0.00 in0.0 mm
03:27 AM 34.9°F1.6°C 19.9°F-6.7°C 54% 4.7 mph W7.6 kmh W 8.3 mph13.4 kmh 29.81 in1009.5 mb - 0.00 in0.0 mm 0.00 in0.0 mm
03:32 AM 34.9°F1.6°C 19.9°F-6.7°C 54% 3.1 mph SSW5.0 kmh SSW 5.6 mph9.0 kmh 29.81 in1009.5 mb - 0.00 in0.0 mm 0.00 in0.0 mm
03:37 AM 35.1°F1.7°C 20.1°F-6.6°C 54% 2.7 mph WSW4.3 kmh WSW 6.3 mph10.1 kmh 29.81 in1009.5 mb - 0.00 in0.0 mm 0.00 in0.0 mm
03:42 AM 35.2°F1.8°C 20.3°F-6.5°C 54% 4.7 mph WSW7.6 kmh WSW 7.2 mph11.6 kmh 29.81 in1009.5 mb - 0.00 in0.0 mm 0.00 in0.0 mm
03:47 AM 35.2°F1.8°C 20.3°F-6.5°C 54% 4.3 mph W6.9 kmh W 7.6 mph12.2 kmh 29.81 in1009.5 mb - 0.00 in0.0 mm 0.00 in0.0 mm
03:52 AM 35.2°F1.8°C 20.3°F-6.5°C 54% 4.3 mph WSW6.9 kmh WSW 8.9 mph14.3 kmh 29.81 in1009.5 mb - 0.00 in0.0 mm 0.00 in0.0 mm
03:57 AM 35.2°F1.8°C 20.3°F-6.5°C 54% 4.9 mph WNW7.9 kmh WNW 8.1 mph13.0 kmh 29.81 in1009.5 mb - 0.00 in0.0 mm 0.00 in0.0 mm
04:02 AM 35.4°F1.9°C 20.5°F-6.4°C 54% 4.0 mph WSW6.4 kmh WSW 9.4 mph15.1 kmh 29.81 in1009.5 mb - 0.00 in0.0 mm 0.00 in0.0 mm
04:07 AM 35.4°F1.9°C 20.5°F-6.4°C 54% 4.0 mph W6.4 kmh W 7.4 mph11.9 kmh 29.81 in1009.5 mb - 0.00 in0.0 mm 0.00 in0.0 mm
04:12 AM 35.6°F2.0°C 20.7°F-6.3°C 54% 4.3 mph WSW6.9 kmh WSW 8.9 mph14.3 kmh 29.81 in1009.5 mb - 0.00 in0.0 mm 0.00 in0.0 mm
04:17 AM 35.6°F2.0°C 20.7°F-6.3°C 54% 4.3 mph W6.9 kmh W 10.3 mph16.6 kmh 29.81 in1009.5 mb - 0.00 in0.0 mm 0.00 in0.0 mm
04:22 AM 35.6°F2.0°C 20.7°F-6.3°C 54% 5.4 mph W8.7 kmh W 9.8 mph15.8 kmh 29.81 in1009.5 mb - 0.00 in0.0 mm 0.00 in0.0 mm
04:27 AM 35.6°F2.0°C 20.7°F-6.3°C 54% 3.1 mph WNW5.0 kmh WNW 6.7 mph10.8 kmh 29.81 in1009.5 mb - 0.00 in0.0 mm 0.00 in0.0 mm
04:32 AM 35.6°F2.0°C 20.7°F-6.3°C 54% 3.6 mph SW5.8 kmh SW 6.9 mph11.1 kmh 29.81 in1009.5 mb - 0.00 in0.0 mm 0.00 in0.0 mm
04:37 AM 35.6°F2.0°C 20.7°F-6.3°C 54% 3.6 mph WNW5.8 kmh WNW 7.2 mph11.6 kmh 29.81 in1009.5 mb - 0.00 in0.0 mm 0.00 in0.0 mm
04:42 AM 35.6°F2.0°C 20.7°F-6.3°C 54% 4.3 mph W6.9 kmh W 7.8 mph12.6 kmh 29.81 in1009.5 mb - 0.00 in0.0 mm 0.00 in0.0 mm
04:47 AM 35.6°F2.0°C 20.7°F-6.3°C 54% 4.7 mph W7.6 kmh W 9.2 mph14.8 kmh 29.81 in1009.5 mb - 0.00 in0.0 mm 0.00 in0.0 mm
04:52 AM 35.6°F2.0°C 20.7°F-6.3°C 54% 5.4 mph W8.7 kmh W 10.3 mph16.6 kmh 29.81 in1009.5 mb - 0.00 in0.0 mm 0.00 in0.0 mm
04:57 AM 35.8°F2.1°C 20.8°F-6.2°C 54% 4.9 mph WSW7.9 kmh WSW 10.7 mph17.2 kmh 29.81 in1009.5 mb - 0.00 in0.0 mm 0.00 in0.0 mm
05:02 AM 35.8°F2.1°C 20.8°F-6.2°C 54% 5.4 mph WSW8.7 kmh WSW 10.3 mph16.6 kmh 29.81 in1009.5 mb - 0.00 in0.0 mm 0.00 in0.0 mm
05:07 AM 35.8°F2.1°C 20.8°F-6.2°C 54% 5.1 mph W8.2 kmh W 10.1 mph16.3 kmh 29.81 in1009.5 mb - 0.00 in0.0 mm 0.00 in0.0 mm
05:12 AM 35.6°F2.0°C 20.7°F-6.3°C 54% 4.9 mph W7.9 kmh W 9.2 mph14.8 kmh 29.81 in1009.5 mb - 0.00 in0.0 mm 0.00 in0.0 mm
05:17 AM 35.6°F2.0°C 20.7°F-6.3°C 54% 4.9 mph W7.9 kmh W 4.9 mph7.9 kmh 29.78 in1008.5 mb - 0.00 in0.0 mm 0.00 in0.0 mm
05:22 AM 35.6°F2.0°C 20.7°F-6.3°C 54% 6.5 mph WSW10.5 kmh WSW 11.2 mph18.0 kmh 29.78 in1008.5 mb - 0.00 in0.0 mm 0.00 in0.0 mm
05:27 AM 35.6°F2.0°C 20.7°F-6.3°C 54% 4.5 mph WSW7.2 kmh WSW 9.6 mph15.4 kmh 29.78 in1008.5 mb - 0.00 in0.0 mm 0.00 in0.0 mm
05:32 AM 35.6°F2.0°C 20.7°F-6.3°C 54% 5.8 mph WSW9.3 kmh WSW 9.2 mph14.8 kmh 29.81 in1009.5 mb - 0.00 in0.0 mm 0.00 in0.0 mm
05:37 AM 35.6°F2.0°C 20.7°F-6.3°C 54% 5.8 mph WNW9.3 kmh WNW 9.8 mph15.8 kmh 29.81 in1009.5 mb - 0.00 in0.0 mm 0.00 in0.0 mm
05:42 AM 35.4°F1.9°C 20.5°F-6.4°C 54% 5.1 mph W8.2 kmh W 5.1 mph8.2 kmh 29.81 in1009.5 mb - 0.00 in0.0 mm 0.00 in0.0 mm
05:47 AM 35.4°F1.9°C 20.5°F-6.4°C 54% 3.1 mph W5.0 kmh W 6.7 mph10.8 kmh 29.81 in1009.5 mb - 0.00 in0.0 mm 0.00 in0.0 mm
05:52 AM 35.4°F1.9°C 20.5°F-6.4°C 54% 4.0 mph W6.4 kmh W 9.4 mph15.1 kmh 29.81 in1009.5 mb - 0.00 in0.0 mm 0.00 in0.0 mm
05:57 AM 35.4°F1.9°C 20.5°F-6.4°C 54% 6.0 mph SW9.7 kmh SW 10.3 mph16.6 kmh 29.81 in1009.5 mb - 0.00 in0.0 mm 0.00 in0.0 mm
06:02 AM 35.4°F1.9°C 20.5°F-6.4°C 54% 4.9 mph WSW7.9 kmh WSW 7.6 mph12.2 kmh 29.81 in1009.5 mb - 0.00 in0.0 mm 0.00 in0.0 mm
06:07 AM 35.2°F1.8°C 20.3°F-6.5°C 54% 4.0 mph WNW6.4 kmh WNW 7.4 mph11.9 kmh 29.81 in1009.5 mb - 0.00 in0.0 mm 0.00 in0.0 mm
06:12 AM 35.2°F1.8°C 20.3°F-6.5°C 54% 1.8 mph WNW2.9 kmh WNW 4.7 mph7.6 kmh 29.81 in1009.5 mb - 0.00 in0.0 mm 0.00 in0.0 mm
06:17 AM 35.2°F1.8°C 20.3°F-6.5°C 54% 3.1 mph W5.0 kmh W 6.5 mph10.5 kmh 29.81 in1009.5 mb - 0.00 in0.0 mm 0.00 in0.0 mm
06:22 AM 35.1°F1.7°C 20.1°F-6.6°C 54% 3.8 mph NW6.1 kmh NW 6.7 mph10.8 kmh 29.81 in1009.5 mb - 0.00 in0.0 mm 0.00 in0.0 mm
06:27 AM 35.1°F1.7°C 20.1°F-6.6°C 54% 2.9 mph WSW4.7 kmh WSW 6.5 mph10.5 kmh 29.81 in1009.5 mb - 0.00 in0.0 mm 0.00 in0.0 mm
06:32 AM 35.1°F1.7°C 20.1°F-6.6°C 54% 4.5 mph W7.2 kmh W 7.6 mph12.2 kmh 29.81 in1009.5 mb - 0.00 in0.0 mm 0.00 in0.0 mm
06:37 AM 34.9°F1.6°C 19.9°F-6.7°C 54% 4.5 mph W7.2 kmh W 7.8 mph12.6 kmh 29.81 in1009.5 mb - 0.00 in0.0 mm 0.00 in0.0 mm
06:42 AM 34.9°F1.6°C 19.9°F-6.7°C 54% 4.3 mph W6.9 kmh W 4.3 mph6.9 kmh 29.81 in1009.5 mb - 0.00 in0.0 mm 0.00 in0.0 mm
06:47 AM 34.9°F1.6°C 19.9°F-6.7°C 54% 5.4 mph WSW8.7 kmh WSW 9.4 mph15.1 kmh 29.81 in1009.5 mb - 0.00 in0.0 mm 0.00 in0.0 mm
06:52 AM 34.9°F1.6°C 19.9°F-6.7°C 54% 4.5 mph WSW7.2 kmh WSW 8.3 mph13.4 kmh 29.81 in1009.5 mb - 0.00 in0.0 mm 0.00 in0.0 mm
06:57 AM 34.7°F1.5°C 19.8°F-6.8°C 54% 3.8 mph W6.1 kmh W 8.5 mph13.7 kmh 29.81 in1009.5 mb - 0.00 in0.0 mm 0.00 in0.0 mm
07:02 AM 34.7°F1.5°C 19.8°F-6.8°C 54% 4.0 mph WNW6.4 kmh WNW 7.6 mph12.2 kmh 29.81 in1009.5 mb - 0.00 in0.0 mm 0.00 in0.0 mm
07:07 AM 34.7°F1.5°C 19.8°F-6.8°C 54% 2.5 mph W4.0 kmh W 5.8 mph9.3 kmh 29.81 in1009.5 mb - 0.00 in0.0 mm 0.00 in0.0 mm
07:12 AM 34.7°F1.5°C 19.8°F-6.8°C 54% 5.8 mph W9.3 kmh W 11.6 mph18.7 kmh 29.81 in1009.5 mb - 0.00 in0.0 mm 0.00 in0.0 mm
07:17 AM 34.5°F1.4°C 19.6°F-6.9°C 54% 4.7 mph W7.6 kmh W 8.5 mph13.7 kmh 29.81 in1009.5 mb - 0.00 in0.0 mm 0.00 in0.0 mm
07:22 AM 34.5°F1.4°C 19.6°F-6.9°C 54% 4.0 mph W6.4 kmh W 7.2 mph11.6 kmh 29.81 in1009.5 mb - 0.00 in0.0 mm 0.00 in0.0 mm
07:27 AM 34.5°F1.4°C 19.6°F-6.9°C 54% 3.6 mph WSW5.8 kmh WSW 3.6 mph5.8 kmh 29.81 in1009.5 mb - 0.00 in0.0 mm 0.00 in0.0 mm
07:32 AM 34.7°F1.5°C 19.8°F-6.8°C 54% 4.5 mph W7.2 kmh W 7.6 mph12.2 kmh 29.81 in1009.5 mb - 0.00 in0.0 mm 0.00 in0.0 mm
07:37 AM 34.5°F1.4°C 19.6°F-6.9°C 54% 4.9 mph W7.9 kmh W 8.1 mph13.0 kmh 29.81 in1009.5 mb - 0.00 in0.0 mm 0.00 in0.0 mm
07:42 AM 34.5°F1.4°C 19.6°F-6.9°C 54% 4.3 mph WSW6.9 kmh WSW 8.9 mph14.3 kmh 29.81 in1009.5 mb - 0.00 in0.0 mm 0.00 in0.0 mm
07:47 AM 34.5°F1.4°C 19.6°F-6.9°C 54% 4.0 mph W6.4 kmh W 6.9 mph11.1 kmh 29.81 in1009.5 mb - 0.00 in0.0 mm 0.00 in0.0 mm
07:52 AM 34.5°F1.4°C 20.1°F-6.6°C 55% 2.7 mph WNW4.3 kmh WNW 5.4 mph8.7 kmh 29.81 in1009.5 mb - 0.00 in0.0 mm 0.00 in0.0 mm
07:57 AM 34.5°F1.4°C 20.1°F-6.6°C 55% 3.1 mph W5.0 kmh W 6.9 mph11.1 kmh 29.81 in1009.5 mb - 0.00 in0.0 mm 0.00 in0.0 mm
08:02 AM 34.5°F1.4°C 20.1°F-6.6°C 55% 3.1 mph WSW5.0 kmh WSW 5.4 mph8.7 kmh 29.81 in1009.5 mb - 0.00 in0.0 mm 0.00 in0.0 mm
08:07 AM 34.7°F1.5°C 20.3°F-6.5°C 55% 3.1 mph WSW5.0 kmh WSW 6.3 mph10.1 kmh 29.81 in1009.5 mb - 0.00 in0.0 mm 0.00 in0.0 mm
08:12 AM 34.7°F1.5°C 20.3°F-6.5°C 55% 4.3 mph W6.9 kmh W 7.4 mph11.9 kmh 29.81 in1009.5 mb - 0.00 in0.0 mm 0.00 in0.0 mm
08:17 AM 34.9°F1.6°C 20.5°F-6.4°C 55% 3.6 mph WNW5.8 kmh WNW 6.7 mph10.8 kmh 29.81 in1009.5 mb - 0.00 in0.0 mm 0.00 in0.0 mm
08:22 AM 34.9°F1.6°C 20.5°F-6.4°C 55% 3.4 mph WSW5.5 kmh WSW 6.0 mph9.7 kmh 29.81 in1009.5 mb - 0.00 in0.0 mm 0.00 in0.0 mm
08:27 AM 35.2°F1.8°C 20.7°F-6.3°C 55% 4.7 mph W7.6 kmh W 7.2 mph11.6 kmh 29.81 in1009.5 mb - 0.00 in0.0 mm 0.00 in0.0 mm
08:32 AM 35.2°F1.8°C 20.7°F-6.3°C 55% 4.7 mph W7.6 kmh W 8.7 mph14.0 kmh 29.81 in1009.5 mb - 0.00 in0.0 mm 0.00 in0.0 mm
08:37 AM 35.2°F1.8°C 20.7°F-6.3°C 55% 4.7 mph W7.6 kmh W 7.8 mph12.6 kmh 29.81 in1009.5 mb - 0.00 in0.0 mm 0.00 in0.0 mm
08:42 AM 35.2°F1.8°C 20.7°F-6.3°C 55% 2.9 mph W4.7 kmh W 6.9 mph11.1 kmh 29.81 in1009.5 mb - 0.00 in0.0 mm 0.00 in0.0 mm
08:47 AM 35.2°F1.8°C 21.2°F-6.0°C 56% 2.5 mph NW4.0 kmh NW 6.7 mph10.8 kmh 29.81 in1009.5 mb - 0.00 in0.0 mm 0.00 in0.0 mm
08:52 AM 35.1°F1.7°C 21.0°F-6.1°C 56% 0.2 mph WSW0.3 kmh WSW 3.6 mph5.8 kmh 29.81 in1009.5 mb - 0.00 in0.0 mm 0.00 in0.0 mm
08:57 AM 35.1°F1.7°C 21.0°F-6.1°C 56% Calm Calm -- 29.81 in1009.5 mb - 0.00 in0.0 mm 0.00 in0.0 mm
09:02 AM 35.1°F1.7°C 21.4°F-5.9°C 57% Calm Calm -- 29.81 in1009.5 mb - 0.00 in0.0 mm 0.00 in0.0 mm
09:07 AM 35.4°F1.9°C 21.7°F-5.7°C 57% 1.1 mph N1.8 kmh N 5.1 mph8.2 kmh 29.81 in1009.5 mb - 0.00 in0.0 mm 0.00 in0.0 mm
09:12 AM 35.8°F2.1°C 22.1°F-5.5°C 57% 0.2 mph WNW0.3 kmh WNW 3.8 mph6.1 kmh 29.81 in1009.5 mb - 0.00 in0.0 mm 0.00 in0.0 mm
09:17 AM 36.0°F2.2°C 22.3°F-5.4°C 57% Calm Calm -- 29.81 in1009.5 mb - 0.00 in0.0 mm 0.00 in0.0 mm
09:22 AM 36.1°F2.3°C 22.5°F-5.3°C 57% Calm Calm -- 29.81 in1009.5 mb - 0.00 in0.0 mm 0.00 in0.0 mm
09:27 AM 36.7°F2.6°C 23.0°F-5.0°C 57% Calm Calm -- 29.81 in1009.5 mb - 0.00 in0.0 mm 0.00 in0.0 mm
09:32 AM 37.0°F2.8°C 23.2°F-4.9°C 57% 1.8 mph ENE2.9 kmh ENE 4.3 mph6.9 kmh 29.81 in1009.5 mb - 0.00 in0.0 mm 0.00 in0.0 mm
09:37 AM 37.0°F2.8°C 22.8°F-5.1°C 56% 0.4 mph S0.6 kmh S 3.1 mph5.0 kmh 29.81 in1009.5 mb - 0.00 in0.0 mm 0.00 in0.0 mm
09:42 AM 37.4°F3.0°C 23.5°F-4.7°C 57% Calm Calm -- 29.81 in1009.5 mb - 0.00 in0.0 mm 0.00 in0.0 mm
09:47 AM 37.6°F3.1°C 23.4°F-4.8°C 56% Calm Calm -- 29.81 in1009.5 mb - 0.00 in0.0 mm 0.00 in0.0 mm
09:52 AM 37.4°F3.0°C 22.8°F-5.1°C 55% 0.4 mph NW0.6 kmh NW 4.0 mph6.4 kmh 29.81 in1009.5 mb - 0.00 in0.0 mm 0.00 in0.0 mm
09:57 AM 37.8°F3.2°C 23.0°F-5.0°C 55% 4.3 mph NNW6.9 kmh NNW 8.3 mph13.4 kmh 29.81 in1009.5 mb - 0.00 in0.0 mm 0.00 in0.0 mm
10:02 AM 38.1°F3.4°C 23.4°F-4.8°C 55% 3.4 mph NW5.5 kmh NW 6.9 mph11.1 kmh 29.81 in1009.5 mb - 0.00 in0.0 mm 0.00 in0.0 mm
10:07 AM 38.1°F3.4°C 23.0°F-5.0°C 54% 5.1 mph WNW8.2 kmh WNW 8.5 mph13.7 kmh 29.81 in1009.5 mb - 0.00 in0.0 mm 0.00 in0.0 mm
10:12 AM 38.3°F3.5°C 23.2°F-4.9°C 54% 5.6 mph WNW9.0 kmh WNW 11.2 mph18.0 kmh 29.81 in1009.5 mb - 0.00 in0.0 mm 0.00 in0.0 mm
10:17 AM 38.5°F3.6°C 23.4°F-4.8°C 54% 6.5 mph WNW10.5 kmh WNW 11.6 mph18.7 kmh 29.81 in1009.5 mb - 0.00 in0.0 mm 0.00 in0.0 mm
10:22 AM 38.7°F3.7°C 23.0°F-5.0°C 53% 5.1 mph NW8.2 kmh NW 9.4 mph15.1 kmh 29.81 in1009.5 mb - 0.00 in0.0 mm 0.00 in0.0 mm
10:27 AM 39.0°F3.9°C 23.4°F-4.8°C 53% 4.9 mph NW7.9 kmh NW 11.0 mph17.7 kmh 29.81 in1009.5 mb - 0.00 in0.0 mm 0.00 in0.0 mm
10:32 AM 39.0°F3.9°C 23.0°F-5.0°C 52% 4.5 mph NNW7.2 kmh NNW 9.2 mph14.8 kmh 29.81 in1009.5 mb - 0.00 in0.0 mm 0.00 in0.0 mm
10:37 AM 38.8°F3.8°C 22.8°F-5.1°C 52% 8.1 mph WNW13.0 kmh WNW 14.3 mph23.0 kmh 29.81 in1009.5 mb - 0.00 in0.0 mm 0.00 in0.0 mm
10:42 AM 39.4°F4.1°C 23.2°F-4.9°C 52% 5.8 mph WNW9.3 kmh WNW 13.0 mph20.9 kmh 29.81 in1009.5 mb - 0.00 in0.0 mm 0.00 in0.0 mm
10:47 AM 39.2°F4.0°C 23.2°F-4.9°C 52% 4.9 mph NW7.9 kmh NW 9.8 mph15.8 kmh 29.81 in1009.5 mb - 0.00 in0.0 mm 0.00 in0.0 mm
10:52 AM 39.6°F4.2°C 23.4°F-4.8°C 52% 6.5 mph NW10.5 kmh NW 15.9 mph25.6 kmh 29.81 in1009.5 mb - 0.00 in0.0 mm 0.00 in0.0 mm
10:57 AM 39.7°F4.3°C 23.5°F-4.7°C 52% 5.1 mph SW8.2 kmh SW 10.7 mph17.2 kmh 29.81 in1009.5 mb - 0.00 in0.0 mm 0.00 in0.0 mm
11:02 AM 39.9°F4.4°C 23.7°F-4.6°C 52% 5.1 mph NW8.2 kmh NW 14.5 mph23.3 kmh 29.81 in1009.5 mb - 0.00 in0.0 mm 0.00 in0.0 mm
11:07 AM 40.6°F4.8°C 24.4°F-4.2°C 52% 4.9 mph W7.9 kmh W 11.4 mph18.3 kmh 29.81 in1009.5 mb - 0.00 in0.0 mm 0.00 in0.0 mm
11:12 AM 40.3°F4.6°C 23.7°F-4.6°C 51% 3.1 mph WSW5.0 kmh WSW 10.5 mph16.9 kmh 29.81 in1009.5 mb - 0.00 in0.0 mm 0.00 in0.0 mm
11:17 AM 40.3°F4.6°C 23.2°F-4.9°C 50% 8.1 mph NW13.0 kmh NW 16.3 mph26.2 kmh 29.81 in1009.5 mb - 0.00 in0.0 mm 0.00 in0.0 mm
11:22 AM 40.1°F4.5°C 23.0°F-5.0°C 50% 9.2 mph WNW14.8 kmh WNW 15.4 mph24.8 kmh 29.81 in1009.5 mb - 0.00 in0.0 mm 0.00 in0.0 mm
11:27 AM 39.9°F4.4°C 22.8°F-5.1°C 50% 8.1 mph WSW13.0 kmh WSW 15.9 mph25.6 kmh 29.81 in1009.5 mb - 0.00 in0.0 mm 0.00 in0.0 mm
11:32 AM 40.5°F4.7°C 23.4°F-4.8°C 50% 9.8 mph W15.8 kmh W 9.8 mph15.8 kmh 29.81 in1009.5 mb - 0.00 in0.0 mm 0.00 in0.0 mm
11:37 AM 40.6°F4.8°C 23.5°F-4.7°C 50% 7.6 mph WNW12.2 kmh WNW 15.2 mph24.5 kmh 29.81 in1009.5 mb - 0.00 in0.0 mm 0.00 in0.0 mm
11:42 AM 41.0°F5.0°C 23.9°F-4.5°C 50% 8.1 mph NW13.0 kmh NW 13.6 mph21.9 kmh 29.81 in1009.5 mb - 0.00 in0.0 mm 0.00 in0.0 mm
11:47 AM 41.2°F5.1°C 23.0°F-5.0°C 48% 8.7 mph W14.0 kmh W 18.8 mph30.3 kmh 29.81 in1009.5 mb - 0.00 in0.0 mm 0.00 in0.0 mm
11:52 AM 40.8°F4.9°C 22.6°F-5.2°C 48% 7.6 mph WNW12.2 kmh WNW 14.1 mph22.7 kmh 29.81 in1009.5 mb - 0.00 in0.0 mm 0.00 in0.0 mm
11:57 AM 40.8°F4.9°C 22.6°F-5.2°C 48% 8.9 mph W14.3 kmh W 15.2 mph24.5 kmh 29.81 in1009.5 mb - 0.00 in0.0 mm 0.00 in0.0 mm
12:02 PM 41.2°F5.1°C 23.0°F-5.0°C 48% 6.7 mph WNW10.8 kmh WNW 14.5 mph23.3 kmh 29.81 in1009.5 mb - 0.00 in0.0 mm 0.00 in0.0 mm
12:07 PM 41.2°F5.1°C 23.0°F-5.0°C 48% 9.8 mph NW15.8 kmh NW 16.8 mph27.0 kmh 29.81 in1009.5 mb - 0.00 in0.0 mm 0.00 in0.0 mm
12:12 PM 41.0°F5.0°C 22.8°F-5.1°C 48% 8.7 mph WNW14.0 kmh WNW 17.2 mph27.7 kmh 29.81 in1009.5 mb - 0.00 in0.0 mm 0.00 in0.0 mm
12:17 PM 40.6°F4.8°C 23.0°F-5.0°C 49% 8.3 mph WNW13.4 kmh WNW 15.7 mph25.3 kmh 29.81 in1009.5 mb - 0.00 in0.0 mm 0.00 in0.0 mm
12:22 PM 41.0°F5.0°C 23.4°F-4.8°C 49% 8.7 mph WNW14.0 kmh WNW 14.8 mph23.8 kmh 29.81 in1009.5 mb - 0.00 in0.0 mm 0.00 in0.0 mm
12:27 PM 40.8°F4.9°C 22.6°F-5.2°C 48% 7.4 mph WSW11.9 kmh WSW 15.4 mph24.8 kmh 29.81 in1009.5 mb - 0.00 in0.0 mm 0.00 in0.0 mm
12:32 PM 41.0°F5.0°C 22.8°F-5.1°C 48% 7.6 mph NW12.2 kmh NW 13.9 mph22.4 kmh 29.81 in1009.5 mb - 0.00 in0.0 mm 0.00 in0.0 mm
12:37 PM 41.0°F5.0°C 22.8°F-5.1°C 48% 6.3 mph W10.1 kmh W 11.4 mph18.3 kmh 29.81 in1009.5 mb - 0.00 in0.0 mm 0.00 in0.0 mm
12:42 PM 41.0°F5.0°C 22.8°F-5.1°C 48% 6.3 mph NW10.1 kmh NW 14.5 mph23.3 kmh 29.81 in1009.5 mb - 0.00 in0.0 mm 0.00 in0.0 mm
12:47 PM 40.8°F4.9°C 22.6°F-5.2°C 48% 4.9 mph WNW7.9 kmh WNW 10.3 mph16.6 kmh 29.81 in1009.5 mb - 0.00 in0.0 mm 0.00 in0.0 mm
12:52 PM 41.0°F5.0°C 23.4°F-4.8°C 49% 6.3 mph WNW10.1 kmh WNW 14.8 mph23.8 kmh 29.81 in1009.5 mb - 0.00 in0.0 mm 0.00 in0.0 mm
12:57 PM 41.0°F5.0°C 23.4°F-4.8°C 49% 6.9 mph W11.1 kmh W 15.4 mph24.8 kmh 29.81 in1009.5 mb - 0.00 in0.0 mm 0.00 in0.0 mm
01:02 PM 41.0°F5.0°C 23.4°F-4.8°C 49% 4.9 mph WNW7.9 kmh WNW 12.5 mph20.1 kmh 29.81 in1009.5 mb - 0.00 in0.0 mm 0.00 in0.0 mm
01:07 PM 41.0°F5.0°C 22.8°F-5.1°C 48% 6.9 mph NW11.1 kmh NW 11.6 mph18.7 kmh 29.81 in1009.5 mb - 0.00 in0.0 mm 0.00 in0.0 mm
01:12 PM 41.0°F5.0°C 22.3°F-5.4°C 47% 6.9 mph W11.1 kmh W 14.3 mph23.0 kmh 29.81 in1009.5 mb - 0.00 in0.0 mm 0.00 in0.0 mm
01:17 PM 41.2°F5.1°C 23.0°F-5.0°C 48% 7.2 mph W11.6 kmh W 14.8 mph23.8 kmh 29.78 in1008.5 mb - 0.00 in0.0 mm 0.00 in0.0 mm
01:22 PM 41.2°F5.1°C 22.5°F-5.3°C 47% 5.8 mph WNW9.3 kmh WNW 11.0 mph17.7 kmh 29.78 in1008.5 mb - 0.00 in0.0 mm 0.00 in0.0 mm
01:27 PM 41.2°F5.1°C 23.0°F-5.0°C 48% 6.7 mph NW10.8 kmh NW 12.8 mph20.6 kmh 29.78 in1008.5 mb - 0.00 in0.0 mm 0.00 in0.0 mm
01:32 PM 41.0°F5.0°C 22.8°F-5.1°C 48% 7.4 mph WNW11.9 kmh WNW 13.9 mph22.4 kmh 29.78 in1008.5 mb - 0.00 in0.0 mm 0.00 in0.0 mm
01:37 PM 41.2°F5.1°C 23.0°F-5.0°C 48% 8.3 mph NW13.4 kmh NW 16.1 mph25.9 kmh 29.78 in1008.5 mb - 0.00 in0.0 mm 0.00 in0.0 mm
01:42 PM 41.2°F5.1°C 23.5°F-4.7°C 49% 6.9 mph WSW11.1 kmh WSW 12.1 mph19.5 kmh 29.78 in1008.5 mb - 0.00 in0.0 mm 0.00 in0.0 mm
01:47 PM 41.2°F5.1°C 23.5°F-4.7°C 49% 6.0 mph W9.7 kmh W 11.6 mph18.7 kmh 29.75 in1007.5 mb - 0.00 in0.0 mm 0.00 in0.0 mm
01:52 PM 41.4°F5.2°C 24.1°F-4.4°C 50% 6.3 mph NW10.1 kmh NW 12.5 mph20.1 kmh 29.75 in1007.5 mb - 0.00 in0.0 mm 0.00 in0.0 mm
01:57 PM 41.5°F5.3°C 24.3°F-4.3°C 50% 3.6 mph N5.8 kmh N 13.2 mph21.2 kmh 29.75 in1007.5 mb - 0.00 in0.0 mm 0.00 in0.0 mm
02:02 PM 41.4°F5.2°C 24.1°F-4.4°C 50% 8.7 mph NNE14.0 kmh NNE 15.7 mph25.3 kmh 29.75 in1007.5 mb - 0.00 in0.0 mm 0.00 in0.0 mm
02:07 PM 41.4°F5.2°C 24.1°F-4.4°C 50% 6.9 mph WNW11.1 kmh WNW 13.0 mph20.9 kmh 29.75 in1007.5 mb - 0.00 in0.0 mm 0.00 in0.0 mm
02:12 PM 41.5°F5.3°C 24.3°F-4.3°C 50% 8.5 mph NW13.7 kmh NW 18.3 mph29.5 kmh 29.75 in1007.5 mb - 0.00 in0.0 mm 0.00 in0.0 mm
02:17 PM 41.5°F5.3°C 24.3°F-4.3°C 50% 6.0 mph WSW9.7 kmh WSW 12.1 mph19.5 kmh 29.75 in1007.5 mb - 0.00 in0.0 mm 0.00 in0.0 mm
02:22 PM 41.5°F5.3°C 24.3°F-4.3°C 50% 6.9 mph W11.1 kmh W 14.8 mph23.8 kmh 29.75 in1007.5 mb - 0.00 in0.0 mm 0.00 in0.0 mm
02:27 PM 41.4°F5.2°C 23.2°F-4.9°C 48% 6.3 mph WNW10.1 kmh WNW 17.0 mph27.4 kmh 29.75 in1007.5 mb - 0.00 in0.0 mm 0.00 in0.0 mm
02:32 PM 41.4°F5.2°C 23.7°F-4.6°C 49% 8.1 mph N13.0 kmh N 14.8 mph23.8 kmh 29.75 in1007.5 mb - 0.00 in0.0 mm 0.00 in0.0 mm
02:37 PM 41.4°F5.2°C 23.7°F-4.6°C 49% 5.1 mph W8.2 kmh W 12.5 mph20.1 kmh 29.75 in1007.5 mb - 0.00 in0.0 mm 0.00 in0.0 mm
02:42 PM 41.5°F5.3°C 23.4°F-4.8°C 48% 4.0 mph NW6.4 kmh NW 13.0 mph20.9 kmh 29.75 in1007.5 mb - 0.00 in0.0 mm 0.00 in0.0 mm
02:47 PM 42.1°F5.6°C 24.3°F-4.3°C 49% 4.3 mph NW6.9 kmh NW 13.6 mph21.9 kmh 29.75 in1007.5 mb - 0.00 in0.0 mm 0.00 in0.0 mm
02:52 PM 41.9°F5.5°C 23.7°F-4.6°C 48% 6.3 mph NW10.1 kmh NW 15.4 mph24.8 kmh 29.75 in1007.5 mb - 0.00 in0.0 mm 0.00 in0.0 mm
02:57 PM 42.1°F5.6°C 24.3°F-4.3°C 49% 7.8 mph W12.6 kmh W 14.8 mph23.8 kmh 29.75 in1007.5 mb - 0.00 in0.0 mm 0.00 in0.0 mm
03:02 PM 41.9°F5.5°C 24.3°F-4.3°C 49% 6.3 mph WSW10.1 kmh WSW 13.6 mph21.9 kmh 29.75 in1007.5 mb - 0.00 in0.0 mm 0.00 in0.0 mm
03:07 PM 42.1°F5.6°C 24.3°F-4.3°C 49% 5.8 mph NNW9.3 kmh NNW 10.3 mph16.6 kmh 29.75 in1007.5 mb - 0.00 in0.0 mm 0.00 in0.0 mm
03:12 PM 41.9°F5.5°C 24.3°F-4.3°C 49% 2.9 mph NNE4.7 kmh NNE 7.8 mph12.6 kmh 29.75 in1007.5 mb - 0.00 in0.0 mm 0.00 in0.0 mm
03:17 PM 41.7°F5.4°C 24.1°F-4.4°C 49% 4.5 mph WNW7.2 kmh WNW 11.9 mph19.2 kmh 29.75 in1007.5 mb - 0.00 in0.0 mm 0.00 in0.0 mm
03:22 PM 41.5°F5.3°C 23.9°F-4.5°C 49% 5.1 mph WNW8.2 kmh WNW 10.3 mph16.6 kmh 29.75 in1007.5 mb - 0.00 in0.0 mm 0.00 in0.0 mm
03:27 PM 41.5°F5.3°C 23.4°F-4.8°C 48% 6.3 mph W10.1 kmh W 13.2 mph21.2 kmh 29.75 in1007.5 mb - 0.00 in0.0 mm 0.00 in0.0 mm
03:32 PM 41.5°F5.3°C 23.4°F-4.8°C 48% 5.4 mph NW8.7 kmh NW 9.6 mph15.4 kmh 29.75 in1007.5 mb - 0.00 in0.0 mm 0.00 in0.0 mm
03:37 PM 41.5°F5.3°C 22.8°F-5.1°C 47% 6.5 mph WNW10.5 kmh WNW 11.6 mph18.7 kmh 29.75 in1007.5 mb - 0.00 in0.0 mm 0.00 in0.0 mm
03:42 PM 41.7°F5.4°C 23.0°F-5.0°C 47% 5.1 mph NW8.2 kmh NW 10.5 mph16.9 kmh 29.75 in1007.5 mb - 0.00 in0.0 mm 0.00 in0.0 mm
03:47 PM 41.7°F5.4°C 23.0°F-5.0°C 47% 6.9 mph WNW11.1 kmh WNW 13.0 mph20.9 kmh 29.75 in1007.5 mb - 0.00 in0.0 mm 0.00 in0.0 mm
03:52 PM 41.9°F5.5°C 23.2°F-4.9°C 47% 7.6 mph W12.2 kmh W 14.8 mph23.8 kmh 29.75 in1007.5 mb - 0.00 in0.0 mm 0.00 in0.0 mm
03:57 PM 41.7°F5.4°C 22.5°F-5.3°C 46% 5.6 mph WNW9.0 kmh WNW 10.1 mph16.3 kmh 29.75 in1007.5 mb - 0.00 in0.0 mm 0.00 in0.0 mm
04:02 PM 41.9°F5.5°C 23.2°F-4.9°C 47% 6.7 mph NW10.8 kmh NW 13.2 mph21.2 kmh 29.75 in1007.5 mb - 0.00 in0.0 mm 0.00 in0.0 mm
04:07 PM 41.9°F5.5°C 22.6°F-5.2°C 46% 5.4 mph NW8.7 kmh NW 9.6 mph15.4 kmh 29.75 in1007.5 mb - 0.00 in0.0 mm 0.00 in0.0 mm
04:12 PM 41.9°F5.5°C 22.6°F-5.2°C 46% 6.7 mph WNW10.8 kmh WNW 12.1 mph19.5 kmh 29.75 in1007.5 mb - 0.00 in0.0 mm 0.00 in0.0 mm
04:17 PM 42.1°F5.6°C 22.8°F-5.1°C 46% 4.9 mph NW7.9 kmh NW 11.0 mph17.7 kmh 29.72 in1006.4 mb - 0.00 in0.0 mm 0.00 in0.0 mm
04:22 PM 41.9°F5.5°C 22.6°F-5.2°C 46% 5.1 mph WNW8.2 kmh WNW 15.4 mph24.8 kmh 29.72 in1006.4 mb - 0.00 in0.0 mm 0.00 in0.0 mm
04:27 PM 41.7°F5.4°C 23.0°F-5.0°C 47% 6.5 mph NW10.5 kmh NW 15.2 mph24.5 kmh 29.72 in1006.4 mb - 0.00 in0.0 mm 0.00 in0.0 mm
04:32 PM 41.5°F5.3°C 23.4°F-4.8°C 48% 6.3 mph NW10.1 kmh NW 12.3 mph19.8 kmh 29.75 in1007.5 mb - 0.00 in0.0 mm 0.00 in0.0 mm
04:37 PM 41.5°F5.3°C 23.4°F-4.8°C 48% 6.5 mph W10.5 kmh W 14.3 mph23.0 kmh 29.75 in1007.5 mb - 0.00 in0.0 mm 0.00 in0.0 mm
04:42 PM 41.4°F5.2°C 23.2°F-4.9°C 48% 4.5 mph NW7.2 kmh NW 9.2 mph14.8 kmh 29.75 in1007.5 mb - 0.00 in0.0 mm 0.00 in0.0 mm
04:47 PM 41.5°F5.3°C 23.4°F-4.8°C 48% 6.0 mph NW9.7 kmh NW 10.5 mph16.9 kmh 29.75 in1007.5 mb - 0.00 in0.0 mm 0.00 in0.0 mm
04:52 PM 41.5°F5.3°C 23.4°F-4.8°C 48% 3.6 mph NW5.8 kmh NW 6.7 mph10.8 kmh 29.75 in1007.5 mb - 0.00 in0.0 mm 0.00 in0.0 mm
04:57 PM 41.4°F5.2°C 22.6°F-5.2°C 47% 4.5 mph WNW7.2 kmh WNW 12.3 mph19.8 kmh 29.75 in1007.5 mb - 0.00 in0.0 mm 0.00 in0.0 mm
05:02 PM 41.4°F5.2°C 22.6°F-5.2°C 47% 3.4 mph NW5.5 kmh NW 8.7 mph14.0 kmh 29.75 in1007.5 mb - 0.00 in0.0 mm 0.00 in0.0 mm
05:07 PM 41.4°F5.2°C 23.2°F-4.9°C 48% 4.0 mph NW6.4 kmh NW 10.7 mph17.2 kmh 29.75 in1007.5 mb - 0.00 in0.0 mm 0.00 in0.0 mm
05:12 PM 41.4°F5.2°C 23.2°F-4.9°C 48% 1.6 mph WSW2.6 kmh WSW 7.2 mph11.6 kmh 29.75 in1007.5 mb - 0.00 in0.0 mm 0.00 in0.0 mm
05:17 PM 41.4°F5.2°C 23.2°F-4.9°C 48% 4.0 mph W6.4 kmh W 9.4 mph15.1 kmh 29.72 in1006.4 mb - 0.00 in0.0 mm 0.00 in0.0 mm
05:22 PM 41.2°F5.1°C 23.5°F-4.7°C 49% 1.1 mph W1.8 kmh W 9.6 mph15.4 kmh 29.72 in1006.4 mb - 0.00 in0.0 mm 0.00 in0.0 mm
05:27 PM 41.0°F5.0°C 23.4°F-4.8°C 49% 3.6 mph NW5.8 kmh NW 13.0 mph20.9 kmh 29.72 in1006.4 mb - 0.00 in0.0 mm 0.00 in0.0 mm
05:32 PM 40.8°F4.9°C 23.2°F-4.9°C 49% 4.7 mph N7.6 kmh N 9.6 mph15.4 kmh 29.72 in1006.4 mb - 0.00 in0.0 mm 0.00 in0.0 mm
05:37 PM 40.6°F4.8°C 23.0°F-5.0°C 49% 1.1 mph WSW1.8 kmh WSW 5.4 mph8.7 kmh 29.72 in1006.4 mb - 0.00 in0.0 mm 0.00 in0.0 mm
05:42 PM 40.6°F4.8°C 23.0°F-5.0°C 49% 2.9 mph W4.7 kmh W 6.5 mph10.5 kmh 29.72 in1006.4 mb - 0.00 in0.0 mm 0.00 in0.0 mm
05:47 PM 40.6°F4.8°C 23.0°F-5.0°C 49% 3.8 mph NNE6.1 kmh NNE 7.4 mph11.9 kmh 29.75 in1007.5 mb - 0.00 in0.0 mm 0.00 in0.0 mm
05:52 PM 40.6°F4.8°C 23.5°F-4.7°C 50% 2.7 mph NW4.3 kmh NW 2.7 mph4.3 kmh 29.75 in1007.5 mb - 0.00 in0.0 mm 0.00 in0.0 mm
05:57 PM 40.6°F4.8°C 23.5°F-4.7°C 50% 2.2 mph WNW3.5 kmh WNW 6.5 mph10.5 kmh 29.75 in1007.5 mb - 0.00 in0.0 mm 0.00 in0.0 mm
06:02 PM 40.5°F4.7°C 23.4°F-4.8°C 50% 1.1 mph NNE1.8 kmh NNE 4.5 mph7.2 kmh 29.75 in1007.5 mb - 0.00 in0.0 mm 0.00 in0.0 mm
06:07 PM 40.3°F4.6°C 23.2°F-4.9°C 50% 1.3 mph N2.1 kmh N 6.0 mph9.7 kmh 29.75 in1007.5 mb - 0.00 in0.0 mm 0.00 in0.0 mm
06:12 PM 40.1°F4.5°C 23.0°F-5.0°C 50% 0.9 mph NNW1.4 kmh NNW 4.3 mph6.9 kmh 29.75 in1007.5 mb - 0.00 in0.0 mm 0.00 in0.0 mm
06:17 PM 39.9°F4.4°C 22.8°F-5.1°C 50% 4.0 mph NNW6.4 kmh NNW 8.7 mph14.0 kmh 29.75 in1007.5 mb - 0.00 in0.0 mm 0.00 in0.0 mm
06:22 PM 39.7°F4.3°C 22.6°F-5.2°C 50% 4.3 mph NW6.9 kmh NW 9.6 mph15.4 kmh 29.75 in1007.5 mb - 0.00 in0.0 mm 0.00 in0.0 mm
06:27 PM 39.7°F4.3°C 22.6°F-5.2°C 50% 1.3 mph W2.1 kmh W 6.5 mph10.5 kmh 29.75 in1007.5 mb - 0.00 in0.0 mm 0.00 in0.0 mm
06:32 PM 39.6°F4.2°C 22.5°F-5.3°C 50% Calm Calm -- 29.75 in1007.5 mb - 0.00 in0.0 mm 0.00 in0.0 mm
06:37 PM 39.4°F4.1°C 22.3°F-5.4°C 50% 1.8 mph WNW2.9 kmh WNW 7.6 mph12.2 kmh 29.75 in1007.5 mb - 0.00 in0.0 mm 0.00 in0.0 mm
06:42 PM 39.4°F4.1°C 22.3°F-5.4°C 50% 2.2 mph W3.5 kmh W 6.5 mph10.5 kmh 29.75 in1007.5 mb - 0.00 in0.0 mm 0.00 in0.0 mm
06:47 PM 39.2°F4.0°C 22.1°F-5.5°C 50% 0.4 mph SW0.6 kmh SW 2.9 mph4.7 kmh 29.75 in1007.5 mb - 0.00 in0.0 mm 0.00 in0.0 mm
06:52 PM 39.0°F3.9°C 21.9°F-5.6°C 50% 1.6 mph WNW2.6 kmh WNW 7.2 mph11.6 kmh 29.75 in1007.5 mb - 0.00 in0.0 mm 0.00 in0.0 mm
06:57 PM 39.0°F3.9°C 21.9°F-5.6°C 50% 2.0 mph NW3.2 kmh NW 9.4 mph15.1 kmh 29.75 in1007.5 mb - 0.00 in0.0 mm 0.00 in0.0 mm
07:02 PM 38.8°F3.8°C 21.9°F-5.6°C 50% 2.0 mph WNW3.2 kmh WNW 6.3 mph10.1 kmh 29.75 in1007.5 mb - 0.00 in0.0 mm 0.00 in0.0 mm
07:07 PM 38.8°F3.8°C 21.9°F-5.6°C 50% 1.3 mph NW2.1 kmh NW 5.1 mph8.2 kmh 29.75 in1007.5 mb - 0.00 in0.0 mm 0.00 in0.0 mm
07:12 PM 38.7°F3.7°C 21.7°F-5.7°C 50% Calm Calm -- 29.75 in1007.5 mb - 0.00 in0.0 mm 0.00 in0.0 mm
07:17 PM 38.7°F3.7°C 21.7°F-5.7°C 50% 0.4 mph NNW0.6 kmh NNW 2.7 mph4.3 kmh 29.78 in1008.5 mb - 0.00 in0.0 mm 0.00 in0.0 mm
07:22 PM 38.3°F3.5°C 21.7°F-5.7°C 51% 0.2 mph SW0.3 kmh SW 4.7 mph7.6 kmh 29.78 in1008.5 mb - 0.00 in0.0 mm 0.00 in0.0 mm
07:27 PM 38.1°F3.4°C 21.6°F-5.8°C 51% Calm Calm -- 29.78 in1008.5 mb - 0.00 in0.0 mm 0.00 in0.0 mm
07:32 PM 38.1°F3.4°C 21.6°F-5.8°C 51% Calm Calm -- 29.78 in1008.5 mb - 0.00 in0.0 mm 0.00 in0.0 mm
07:37 PM 37.9°F3.3°C 21.6°F-5.8°C 51% 0.4 mph NW0.6 kmh NW 4.0 mph6.4 kmh 29.78 in1008.5 mb - 0.00 in0.0 mm 0.00 in0.0 mm
07:42 PM 37.8°F3.2°C 21.4°F-5.9°C 51% Calm Calm -- 29.78 in1008.5 mb - 0.00 in0.0 mm 0.00 in0.0 mm
07:47 PM 37.4°F3.0°C 21.0°F-6.1°C 51% Calm Calm -- 29.78 in1008.5 mb - 0.00 in0.0 mm 0.00 in0.0 mm
07:52 PM 36.9°F2.7°C 20.5°F-6.4°C 51% Calm Calm -- 29.78 in1008.5 mb - 0.00 in0.0 mm 0.00 in0.0 mm
07:57 PM 36.3°F2.4°C 20.5°F-6.4°C 52% Calm Calm -- 29.78 in1008.5 mb - 0.00 in0.0 mm 0.00 in0.0 mm
08:02 PM 35.8°F2.1°C 19.9°F-6.7°C 52% Calm Calm -- 29.78 in1008.5 mb - 0.00 in0.0 mm 0.00 in0.0 mm
08:07 PM 35.4°F1.9°C 19.6°F-6.9°C 52% Calm Calm -- 29.78 in1008.5 mb - 0.00 in0.0 mm 0.00 in0.0 mm
08:12 PM 35.1°F1.7°C 19.8°F-6.8°C 53% Calm Calm -- 29.78 in1008.5 mb - 0.00 in0.0 mm 0.00 in0.0 mm
08:17 PM 34.7°F1.5°C 19.4°F-7.0°C 53% Calm Calm -- 29.78 in1008.5 mb - 0.00 in0.0 mm 0.00 in0.0 mm
08:22 PM 34.5°F1.4°C 19.2°F-7.1°C 53% Calm Calm -- 29.78 in1008.5 mb - 0.00 in0.0 mm 0.00 in0.0 mm
08:27 PM 34.2°F1.2°C 18.9°F-7.3°C 53% Calm Calm -- 29.78 in1008.5 mb - 0.00 in0.0 mm 0.00 in0.0 mm
08:32 PM 33.8°F1.0°C 19.0°F-7.2°C 54% Calm Calm -- 29.81 in1009.5 mb - 0.00 in0.0 mm 0.00 in0.0 mm
08:37 PM 33.6°F0.9°C 18.9°F-7.3°C 54% Calm Calm -- 29.81 in1009.5 mb - 0.00 in0.0 mm 0.00 in0.0 mm
08:42 PM 33.3°F0.7°C 18.5°F-7.5°C 54% Calm Calm -- 29.81 in1009.5 mb - 0.00 in0.0 mm 0.00 in0.0 mm
08:47 PM 33.1°F0.6°C 18.7°F-7.4°C 55% Calm Calm -- 29.78 in1008.5 mb - 0.00 in0.0 mm 0.00 in0.0 mm
08:52 PM 32.9°F0.5°C 19.0°F-7.2°C 56% Calm Calm -- 29.78 in1008.5 mb - 0.00 in0.0 mm 0.00 in0.0 mm
08:57 PM 32.5°F0.3°C 18.7°F-7.4°C 56% Calm Calm -- 29.78 in1008.5 mb - 0.00 in0.0 mm 0.00 in0.0 mm
09:02 PM 32.4°F0.2°C 18.5°F-7.5°C 56% Calm Calm -- 29.78 in1008.5 mb - 0.00 in0.0 mm 0.00 in0.0 mm
09:07 PM 32.4°F0.2°C 18.9°F-7.3°C 57% Calm Calm -- 29.78 in1008.5 mb - 0.00 in0.0 mm 0.00 in0.0 mm
09:12 PM 32.0°F0.0°C 18.9°F-7.3°C 58% Calm Calm -- 29.78 in1008.5 mb - 0.00 in0.0 mm 0.00 in0.0 mm
09:17 PM 32.0°F0.0°C 18.9°F-7.3°C 58% Calm Calm -- 29.78 in1008.5 mb - 0.00 in0.0 mm 0.00 in0.0 mm
09:22 PM 31.8°F-0.1°C 18.7°F-7.4°C 58% Calm Calm -- 29.78 in1008.5 mb - 0.00 in0.0 mm 0.00 in0.0 mm
09:27 PM 31.8°F-0.1°C 18.7°F-7.4°C 58% Calm Calm -- 29.78 in1008.5 mb - 0.00 in0.0 mm 0.00 in0.0 mm
09:37 PM 31.3°F-0.4°C 19.0°F-7.2°C 60% Calm Calm -- 29.78 in1008.5 mb - 0.00 in0.0 mm 0.00 in0.0 mm
09:42 PM 31.1°F-0.5°C 19.2°F-7.1°C 61% Calm Calm -- 29.78 in1008.5 mb - 0.00 in0.0 mm 0.00 in0.0 mm
09:47 PM 30.9°F-0.6°C 19.0°F-7.2°C 61% Calm Calm -- 29.78 in1008.5 mb - 0.00 in0.0 mm 0.00 in0.0 mm
09:52 PM 30.7°F-0.7°C 18.9°F-7.3°C 61% Calm Calm -- 29.78 in1008.5 mb - 0.00 in0.0 mm 0.00 in0.0 mm
09:57 PM 30.7°F-0.7°C 18.9°F-7.3°C 61% Calm Calm -- 29.78 in1008.5 mb - 0.00 in0.0 mm 0.00 in0.0 mm
10:02 PM 30.6°F-0.8°C 19.0°F-7.2°C 62% Calm Calm -- 29.81 in1009.5 mb - 0.00 in0.0 mm 0.00 in0.0 mm
10:07 PM 30.4°F-0.9°C 18.9°F-7.3°C 62% Calm Calm -- 29.81 in1009.5 mb - 0.00 in0.0 mm 0.00 in0.0 mm
10:12 PM 30.4°F-0.9°C 18.9°F-7.3°C 62% Calm Calm -- 29.81 in1009.5 mb - 0.00 in0.0 mm 0.00 in0.0 mm
10:17 PM 30.2°F-1.0°C 18.9°F-7.3°C 62% Calm Calm -- 29.81 in1009.5 mb - 0.00 in0.0 mm 0.00 in0.0 mm
10:22 PM 30.2°F-1.0°C 18.9°F-7.3°C 62% Calm Calm -- 29.81 in1009.5 mb - 0.00 in0.0 mm 0.00 in0.0 mm
10:27 PM 30.2°F-1.0°C 19.6°F-6.9°C 64% Calm Calm -- 29.81 in1009.5 mb - 0.00 in0.0 mm 0.00 in0.0 mm
10:32 PM 30.2°F-1.0°C 19.9°F-6.7°C 65% Calm Calm -- 29.81 in1009.5 mb - 0.00 in0.0 mm 0.00 in0.0 mm
10:37 PM 30.0°F-1.1°C 19.8°F-6.8°C 65% Calm Calm -- 29.81 in1009.5 mb - 0.00 in0.0 mm 0.00 in0.0 mm
10:42 PM 30.0°F-1.1°C 19.8°F-6.8°C 65% Calm Calm -- 29.81 in1009.5 mb - 0.00 in0.0 mm 0.00 in0.0 mm
10:47 PM 30.0°F-1.1°C 20.1°F-6.6°C 66% Calm Calm -- 29.81 in1009.5 mb - 0.00 in0.0 mm 0.00 in0.0 mm
10:52 PM 29.8°F-1.2°C 19.6°F-6.9°C 65% Calm Calm -- 29.81 in1009.5 mb - 0.00 in0.0 mm 0.00 in0.0 mm
10:57 PM 29.8°F-1.2°C 19.6°F-6.9°C 65% Calm Calm -- 29.81 in1009.5 mb - 0.00 in0.0 mm 0.00 in0.0 mm
11:02 PM 29.5°F-1.4°C 19.2°F-7.1°C 65% Calm Calm -- 29.81 in1009.5 mb - 0.00 in0.0 mm 0.00 in0.0 mm
11:07 PM 29.5°F-1.4°C 19.2°F-7.1°C 65% Calm Calm -- 29.81 in1009.5 mb - 0.00 in0.0 mm 0.00 in0.0 mm
11:12 PM 29.3°F-1.5°C 19.0°F-7.2°C 65% Calm Calm -- 29.81 in1009.5 mb - 0.00 in0.0 mm 0.00 in0.0 mm
11:17 PM 29.1°F-1.6°C 18.9°F-7.3°C 65% Calm Calm -- 29.81 in1009.5 mb - 0.00 in0.0 mm 0.00 in0.0 mm
11:22 PM 29.1°F-1.6°C 18.9°F-7.3°C 65% Calm Calm -- 29.81 in1009.5 mb - 0.00 in0.0 mm 0.00 in0.0 mm
11:27 PM 28.9°F-1.7°C 18.7°F-7.4°C 65% Calm Calm -- 29.81 in1009.5 mb - 0.00 in0.0 mm 0.00 in0.0 mm
11:32 PM 28.9°F-1.7°C 19.0°F-7.2°C 66% Calm Calm -- 29.81 in1009.5 mb - 0.00 in0.0 mm 0.00 in0.0 mm
11:37 PM 28.8°F-1.8°C 18.9°F-7.3°C 66% Calm Calm -- 29.81 in1009.5 mb - 0.00 in0.0 mm 0.00 in0.0 mm
11:42 PM 28.6°F-1.9°C 18.7°F-7.4°C 66% Calm Calm -- 29.81 in1009.5 mb - 0.00 in0.0 mm 0.00 in0.0 mm
11:47 PM 28.4°F-2.0°C 18.5°F-7.5°C 66% Calm Calm -- 29.81 in1009.5 mb - 0.00 in0.0 mm 0.00 in0.0 mm
11:52 PM 28.4°F-2.0°C 18.5°F-7.5°C 66% Calm Calm -- 29.81 in1009.5 mb - 0.00 in0.0 mm 0.00 in0.0 mm
11:57 PM 28.2°F-2.1°C 18.3°F-7.6°C 66% Calm Calm -- 29.81 in1009.5 mb - 0.00 in0.0 mm 0.00 in0.0 mm